Time;durP1;ratioP1;P1;durP2;ratioP2;P2;SDS_P1;SDS_P2;PMS_P1;PMS_P2;Temp;Humidity;BMP_temperature;BMP_pressure;BME280_temperature;BME280_humidity;BME280_pressure;Samples;Min_cycle;Max_cycle;Signal;HPM_P1;HPM_P2
2022/05/16 00:00:15;;;;;;;0.40;0.37;;;;;;;16.01;81.78;100102.44;5015205;28;20503;-54
2022/05/16 00:02:42;;;;;;;0.40;0.20;;;;;;;15.89;82.49;100101.28;5014993;28;20495;-54
2022/05/16 00:05:12;;;;;;;0.40;0.20;;;;;;;15.83;82.31;100098.94;5015250;28;20464;-54
2022/05/16 00:07:40;;;;;;;0.40;0.20;;;;;;;15.75;83.24;100098.47;5010149;28;20500;-52
2022/05/16 00:10:07;;;;;;;0.40;0.27;;;;;;;15.77;83.45;100093.06;4995488;28;20489;-51
2022/05/16 00:12:34;;;;;;;0.40;0.30;;;;;;;15.78;83.09;100092.09;4999932;28;20504;-52
2022/05/16 00:15:02;;;;;;;0.40;0.20;;;;;;;15.82;82.99;100099.03;5007508;28;20516;-52
2022/05/16 00:17:29;;;;;;;0.40;0.20;;;;;;;15.82;83.61;100099.91;5004726;28;20452;-51
2022/05/16 00:19:55;;;;;;;0.50;0.50;;;;;;;15.75;83.83;100086.88;5007641;28;20448;-52
2022/05/16 00:22:27;;;;;;;0.40;0.20;;;;;;;15.74;83.68;100085.16;5008270;28;21125;-52
2022/05/16 00:24:54;;;;;;;0.40;0.30;;;;;;;15.72;83.78;100090.59;4995339;28;20453;-52
2022/05/16 00:27:20;;;;;;;0.40;0.20;;;;;;;15.66;84.69;100085.56;5007712;28;20938;-52
2022/05/16 00:29:47;;;;;;;0.40;0.20;;;;;;;15.47;85.30;100085.63;4994914;28;20496;-52
2022/05/16 00:32:13;;;;;;;0.40;0.20;;;;;;;15.46;85.11;100078.53;5002041;28;20464;-51
2022/05/16 00:34:40;;;;;;;0.73;0.73;;;;;;;15.49;85.02;100085.53;5013129;28;20515;-51
2022/05/16 00:37:07;;;;;;;0.40;0.30;;;;;;;15.44;85.43;100077.75;5014434;28;20457;-52
2022/05/16 00:39:33;;;;;;;0.40;0.30;;;;;;;15.39;85.82;100079.81;5000495;28;20450;-52
2022/05/16 00:42:01;;;;;;;0.40;0.20;;;;;;;15.25;86.29;100085.88;5014516;28;20507;-51
2022/05/16 00:44:28;;;;;;;0.50;0.40;;;;;;;15.45;85.00;100082.16;5000754;28;20469;-52
2022/05/16 00:46:55;;;;;;;0.50;0.40;;;;;;;15.33;85.78;100078.31;5002133;28;20504;-52
2022/05/16 00:49:29;;;;;;;0.40;0.30;;;;;;;15.39;85.86;100082.50;5011029;28;20522;-53
2022/05/16 00:52:04;;;;;;;0.63;0.57;;;;;;;15.36;86.17;100082.66;5014455;28;20523;-51
2022/05/16 00:54:32;;;;;;;0.40;0.40;;;;;;;15.51;85.57;100087.22;5014042;28;20530;-52
2022/05/16 00:57:03;;;;;;;0.40;0.27;;;;;;;15.44;85.46;100077.75;5014163;28;20479;-52
2022/05/16 00:59:38;;;;;;;0.50;0.40;;;;;;;15.30;86.25;100077.59;5014023;28;20444;-52
2022/05/16 01:04:50;;;;;;;0.40;0.30;;;;;;;15.12;87.37;100063.34;5002190;28;20877;-51
2022/05/16 01:07:23;;;;;;;0.40;0.20;;;;;;;15.20;87.10;100073.66;5013899;28;20499;-51
2022/05/16 01:09:51;;;;;;;0.50;0.50;;;;;;;15.07;87.41;100070.72;5005497;28;21095;-51
2022/05/16 01:12:18;;;;;;;0.50;0.40;;;;;;;15.18;87.01;100072.88;4987665;28;20449;-51
2022/05/16 01:14:52;;;;;;;0.40;0.20;;;;;;;15.27;86.24;100077.75;5013760;28;20989;-52
2022/05/16 01:17:19;;;;;;;0.50;0.43;;;;;;;15.38;85.79;100073.59;4987174;28;20500;-51
2022/05/16 01:19:47;;;;;;;0.40;0.20;;;;;;;15.34;86.06;100065.78;5008901;28;20445;-51
2022/05/16 01:22:39;;;;;;;6.10;2.20;;;;;;;15.20;86.91;100079.00;5013796;28;20457;-51
2022/05/16 01:25:08;;;;;;;0.40;0.40;;;;;;;15.06;87.43;100077.91;5003559;28;21046;-51
2022/05/16 01:27:51;;;;;;;0.40;0.20;;;;;;;14.81;89.16;100080.09;4994016;28;20457;-52
2022/05/16 01:30:23;;;;;;;0.40;0.20;;;;;;;14.80;88.96;100083.69;4990329;28;20542;-51
2022/05/16 01:32:50;;;;;;;0.40;0.30;;;;;;;14.53;90.49;100085.91;5013367;28;20515;-53
2022/05/16 01:35:24;;;;;;;0.40;0.30;;;;;;;14.96;88.96;100092.72;5013477;28;20518;-51
2022/05/16 01:40:37;;;;;;;0.50;0.50;;;;;;;15.11;89.06;100116.03;5013409;28;20531;-52
2022/05/16 01:43:08;;;;;;;0.40;0.20;;;;;;;15.36;87.91;100096.91;5013056;28;20464;-51
2022/05/16 01:45:37;;;;;;;0.40;0.20;;;;;;;15.00;89.28;100090.75;5013098;28;20449;-51
2022/05/16 01:48:04;;;;;;;0.40;0.20;;;;;;;15.20;88.87;100098.63;5006947;28;20672;-52
2022/05/16 01:50:32;;;;;;;0.40;0.30;;;;;;;15.05;89.73;100102.94;5007105;28;20488;-51
2022/05/16 01:52:59;;;;;;;23.03;2.93;;;;;;;15.29;88.42;100092.81;5013961;28;20468;-52
2022/05/16 01:55:25;;;;;;;0.40;0.30;;;;;;;15.28;88.48;100106.28;5013542;28;20452;-51
2022/05/16 01:57:52;;;;;;;0.40;0.20;;;;;;;15.36;88.21;100088.00;5013006;28;20868;-52
2022/05/16 02:00:19;;;;;;;1.63;0.83;;;;;;;15.03;89.73;100080.72;5013073;28;20479;-52
2022/05/16 02:02:45;;;;;;;0.83;0.57;;;;;;;15.28;88.70;100076.81;5013081;28;20884;-51
2022/05/16 02:05:16;;;;;;;0.40;0.20;;;;;;;15.33;88.63;100072.94;5012955;28;20448;-52
2022/05/16 02:07:45;;;;;;;1.23;0.47;;;;;;;15.29;88.78;100074.06;5012999;28;20448;-51
2022/05/16 02:10:15;;;;;;;0.40;0.20;;;;;;;15.28;89.13;100074.13;5001488;28;20489;-51
2022/05/16 02:12:43;;;;;;;0.40;0.20;;;;;;;15.50;88.45;100071.22;5002820;28;20445;-51
2022/05/16 02:15:12;;;;;;;0.40;0.20;;;;;;;15.34;89.08;100071.13;5012719;28;20507;-52
2022/05/16 02:17:40;;;;;;;0.40;0.20;;;;;;;15.27;89.20;100073.28;5004404;28;21001;-52
2022/05/16 02:20:07;;;;;;;0.40;0.20;;;;;;;15.02;90.77;100073.66;5010017;28;20495;-51
2022/05/16 02:25:21;;;;;;;0.73;0.60;;;;;;;15.00;90.59;100058.63;5006169;28;20448;-52
2022/05/16 02:27:51;;;;;;;0.40;0.20;;;;;;;15.07;89.28;100058.22;5012367;28;20456;-52
2022/05/16 02:30:23;;;;;;;0.40;0.20;;;;;;;15.40;88.22;100062.78;5012686;28;20524;-52
2022/05/16 02:32:50;;;;;;;0.40;0.30;;;;;;;15.30;88.14;100054.34;5012450;28;20500;-51
2022/05/16 02:35:17;;;;;;;0.40;0.30;;;;;;;15.07;88.88;100063.56;5012627;28;20503;-52
2022/05/16 02:37:44;;;;;;;0.53;0.53;;;;;;;15.18;88.45;100068.38;5012259;28;20452;-52
2022/05/16 02:40:11;;;;;;;0.80;0.73;;;;;;;14.88;89.83;100057.41;5012585;28;20448;-51
2022/05/16 02:42:38;;;;;;;0.40;0.30;;;;;;;14.84;90.21;100058.53;5012081;28;20453;-51
2022/05/16 02:45:05;;;;;;;0.40;0.20;;;;;;;14.98;89.59;100055.16;5012506;28;20549;-51
2022/05/16 02:47:32;;;;;;;0.57;0.57;;;;;;;14.47;92.14;100054.09;5008799;28;20495;-51
2022/05/16 02:49:58;;;;;;;0.40;0.30;;;;;;;14.29;93.95;100050.47;5002492;28;20542;-51
2022/05/16 02:52:25;;;;;;;0.40;0.20;;;;;;;14.45;92.66;100048.81;5012346;28;20503;-51
2022/05/16 02:54:52;;;;;;;0.70;0.60;;;;;;;14.46;93.11;100058.59;5012341;28;20500;-51
2022/05/16 02:57:18;;;;;;;0.40;0.20;;;;;;;14.51;93.08;100069.03;4999322;28;20452;-52
2022/05/16 02:59:45;;;;;;;0.30;0.20;;;;;;;14.63;92.60;100072.94;5012495;28;20496;-52
2022/05/16 03:02:12;;;;;;;0.40;0.20;;;;;;;14.43;93.09;100074.75;5014984;28;20453;-52
2022/05/16 03:04:40;;;;;;;0.50;0.43;;;;;;;14.66;92.74;100076.31;5016367;28;20468;-52
2022/05/16 03:07:07;;;;;;;0.40;0.20;;;;;;;14.86;91.35;100071.81;5016578;28;20611;-52
2022/05/16 03:09:33;;;;;;;0.30;0.20;;;;;;;14.88;91.14;100078.81;5010347;28;20485;-52
2022/05/16 03:12:01;;;;;;;0.40;0.20;;;;;;;14.89;91.11;100072.53;5001296;28;20437;-52
2022/05/16 03:14:28;;;;;;;0.40;0.20;;;;;;;14.86;91.24;100061.97;5016209;28;20468;-52
2022/05/16 03:16:54;;;;;;;0.40;0.20;;;;;;;15.02;91.21;100051.38;5011646;28;20457;-51
2022/05/16 03:19:22;;;;;;;0.40;0.30;;;;;;;14.85;91.64;100048.69;5010540;28;20448;-51
2022/05/16 03:21:48;;;;;;;0.90;0.90;;;;;;;14.76;91.82;100068.72;5015995;28;21319;-52
2022/05/16 03:24:15;;;;;;;0.40;0.20;;;;;;;14.93;91.38;100089.28;5015874;28;20468;-52
2022/05/16 03:26:42;;;;;;;12.90;1.73;;;;;;;15.04;91.02;100068.22;5015997;28;20964;-52
2022/05/16 03:29:13;;;;;;;0.40;0.20;;;;;;;15.02;90.80;100051.38;5015709;28;20499;-52
2022/05/16 03:31:41;;;;;;;0.40;0.40;;;;;;;14.90;91.84;100062.69;5015816;28;20448;-52
2022/05/16 03:34:10;;;;;;;0.40;0.20;;;;;;;15.06;90.68;100069.00;5030154;22;20507;-51
2022/05/16 03:36:37;;;;;;;0.40;0.20;;;;;;;15.01;91.49;100058.53;5016034;28;20506;-51
2022/05/16 03:41:51;;;;;;;0.50;0.50;;;;;;;15.09;91.39;100053.66;5005758;28;20436;-51
2022/05/16 03:44:19;;;;;;;0.40;0.23;;;;;;;15.13;91.81;100070.44;5015340;28;21630;-51
2022/05/16 03:46:46;;;;;;;0.40;0.20;;;;;;;15.46;89.75;100064.28;5015757;28;20522;-52
2022/05/16 03:49:13;;;;;;;0.30;0.20;;;;;;;15.19;90.51;100061.22;5015415;28;20882;-52
2022/05/16 03:51:40;;;;;;;2.20;1.07;;;;;;;14.95;92.76;100061.53;5015410;28;20492;-51
2022/05/16 03:54:07;;;;;;;0.40;0.20;;;;;;;14.97;92.17;100048.06;5015358;28;20507;-51
2022/05/16 03:56:34;;;;;;;0.70;0.70;;;;;;;15.09;92.16;100045.63;5015430;28;20448;-51
2022/05/16 03:59:00;;;;;;;0.40;0.30;;;;;;;14.95;92.42;100045.47;5015077;28;20448;-51
2022/05/16 04:01:28;;;;;;;1.47;1.43;;;;;;;15.03;92.31;100037.03;5015368;28;20448;-51
2022/05/16 04:03:55;;;;;;;0.83;0.83;;;;;;;15.07;92.71;100039.47;5015249;28;20479;-51
2022/05/16 04:06:22;;;;;;;1.93;1.17;;;;;;;15.15;92.04;100039.09;5015366;28;20527;-51
2022/05/16 04:08:49;;;;;;;0.40;0.20;;;;;;;15.28;91.98;100042.00;5015168;28;20448;-52
2022/05/16 04:11:17;;;;;;;0.30;0.20;;;;;;;15.34;91.60;100039.00;5015115;28;20900;-51
2022/05/16 04:13:45;;;;;;;0.40;0.20;;;;;;;15.42;90.79;100036.78;5013432;28;20965;-51
2022/05/16 04:16:11;;;;;;;1.53;0.73;;;;;;;15.57;90.12;100049.38;5012021;28;20445;-52
2022/05/16 04:18:38;;;;;;;0.40;0.20;;;;;;;15.65;89.81;100052.56;5013569;28;20455;-51
2022/05/16 04:21:05;;;;;;;0.40;0.30;;;;;;;15.51;90.38;100060.44;5014681;28;20961;-51
2022/05/16 04:23:33;;;;;;;0.47;0.43;;;;;;;15.63;90.38;100059.81;5014614;28;21124;-51
2022/05/16 04:25:59;;;;;;;0.63;0.63;;;;;;;15.66;90.61;100067.69;5014923;28;20456;-51
2022/05/16 04:28:26;;;;;;;0.40;0.30;;;;;;;15.66;90.84;100056.97;5014585;28;20502;-51
2022/05/16 04:30:53;;;;;;;0.40;0.30;;;;;;;15.48;91.95;100059.69;5014858;28;20530;-51
2022/05/16 04:33:19;;;;;;;6.83;0.53;;;;;;;15.66;91.11;100062.31;5014676;28;20512;-51
2022/05/16 04:35:46;;;;;;;2.80;2.60;;;;;;;15.76;90.71;100051.09;5014837;28;20870;-51
2022/05/16 04:38:13;;;;;;;4.33;0.77;;;;;;;16.05;87.50;100053.09;5014574;28;20449;-51
2022/05/16 04:42:40;;;;;;;0.93;0.93;;;;;;;16.13;87.03;100058.00;5014350;28;20469;-52
2022/05/16 04:43:26;;;;;;;1.13;1.13;;;;;;;16.08;87.47;100055.59;4994659;28;20531;-52
2022/05/16 04:45:53;;;;;;;2.40;0.70;;;;;;;16.46;86.00;100057.97;5010627;28;20499;-52
2022/05/16 04:48:20;;;;;;;0.40;0.20;;;;;;;16.62;84.83;100066.88;5014480;28;20452;-51
2022/05/16 04:50:47;;;;;;;0.40;0.20;;;;;;;16.46;86.12;100061.50;5014316;28;20531;-52
2022/05/16 04:53:13;;;;;;;0.43;0.37;;;;;;;16.53;85.29;100072.75;5014215;28;21106;-51
2022/05/16 04:55:40;;;;;;;0.50;0.30;;;;;;;16.38;86.26;100084.34;5014522;28;20453;-51
2022/05/16 04:58:07;;;;;;;0.40;0.30;;;;;;;16.49;85.32;100089.97;5014241;28;20456;-52
2022/05/16 05:00:34;;;;;;;0.50;0.33;;;;;;;16.41;85.77;100097.56;5014219;28;20826;-51
2022/05/16 05:03:00;;;;;;;0.40;0.30;;;;;;;16.66;86.11;100105.13;5014230;28;20487;-52
2022/05/16 05:05:27;;;;;;;0.40;0.20;;;;;;;16.59;84.65;100100.13;5014114;28;20448;-51
2022/05/16 05:07:53;;;;;;;0.40;0.20;;;;;;;16.57;84.40;100103.81;5014257;28;20481;-51
2022/05/16 05:16:07;;;;;;;0.90;0.40;;;;;;;16.52;85.66;100087.13;4995247;28;20527;-52
2022/05/16 05:18:35;;;;;;;0.40;0.30;;;;;;;16.55;86.01;100098.53;5014124;28;20448;-51
2022/05/16 05:21:02;;;;;;;0.40;0.30;;;;;;;16.95;84.97;100095.44;5014081;28;20807;-52
2022/05/16 05:23:28;;;;;;;1.33;0.50;;;;;;;17.46;82.75;100102.25;5013942;28;20523;-51
2022/05/16 05:25:57;;;;;;;0.40;0.20;;;;;;;17.80;79.67;100094.84;5013850;28;20818;-51
2022/05/16 05:28:23;;;;;;;2.67;0.90;;;;;;;17.53;79.76;100106.28;5013626;28;20937;-52
2022/05/16 05:30:50;;;;;;;0.40;0.20;;;;;;;17.43;80.75;100106.00;5013616;28;21058;-51
2022/05/16 05:33:17;;;;;;;1.73;0.60;;;;;;;17.39;80.38;100108.94;5013690;28;20448;-52
2022/05/16 05:35:43;;;;;;;0.97;0.97;;;;;;;17.32;81.25;100112.97;5013620;28;20480;-51
2022/05/16 05:38:10;;;;;;;0.40;0.40;;;;;;;17.17;81.83;100110.22;5013977;28;20971;-52
2022/05/16 05:40:37;;;;;;;0.40;0.30;;;;;;;17.13;81.95;100107.78;5013595;28;20448;-52
2022/05/16 05:43:05;;;;;;;0.40;0.20;;;;;;;17.16;82.57;100107.63;5013326;28;20892;-52
2022/05/16 05:45:33;;;;;;;0.40;0.30;;;;;;;17.11;82.24;100109.69;5013563;28;20466;-53
2022/05/16 05:48:01;;;;;;;0.40;0.20;;;;;;;17.17;81.64;100106.66;5013294;28;20491;-51
2022/05/16 05:50:28;;;;;;;0.50;0.40;;;;;;;17.16;83.04;100113.88;5013040;28;20484;-51
2022/05/16 05:52:54;;;;;;;3.00;0.70;;;;;;;17.27;82.35;100121.28;5013112;28;20488;-51
2022/05/16 05:55:21;;;;;;;0.93;0.93;;;;;;;17.40;82.68;100124.09;5013574;28;20569;-52
2022/05/16 05:57:48;;;;;;;0.40;0.30;;;;;;;17.39;82.57;100128.59;5013038;28;20531;-52
2022/05/16 06:00:15;;;;;;;4.40;1.70;;;;;;;17.85;81.01;100125.88;5012911;28;21021;-52
2022/05/16 06:02:42;;;;;;;0.40;0.20;;;;;;;17.70;80.96;100130.38;5013197;28;20452;-52
2022/05/16 06:05:12;;;;;;;0.40;0.20;;;;;;;17.57;81.52;100131.19;5013058;28;20477;-52
2022/05/16 06:07:39;;;;;;;0.50;0.30;;;;;;;17.64;82.21;100141.44;5013186;28;20468;-52
2022/05/16 06:10:07;;;;;;;0.40;0.20;;;;;;;17.64;81.14;100133.38;5012606;28;20484;-52
2022/05/16 06:12:34;;;;;;;8.23;1.20;;;;;;;17.87;82.54;100134.72;5013098;28;20448;-51
2022/05/16 06:15:01;;;;;;;0.63;0.63;;;;;;;17.95;80.46;100142.31;5012906;28;20522;-51
2022/05/16 06:17:27;;;;;;;0.50;0.40;;;;;;;18.00;80.58;100145.59;5007910;28;21024;-52
2022/05/16 06:19:54;;;;;;;0.50;0.37;;;;;;;18.13;79.83;100146.56;5012625;28;20500;-52
2022/05/16 06:22:24;;;;;;;0.40;0.20;;;;;;;18.05;79.34;100144.34;5013075;28;20518;-54
2022/05/16 06:27:36;;;;;;;61.07;2.00;;;;;;;17.97;79.98;100140.41;5012644;28;20445;-52
2022/05/16 06:30:03;;;;;;;0.57;0.43;;;;;;;18.12;79.27;100138.59;5012398;28;20933;-51
2022/05/16 06:32:35;;;;;;;0.40;0.30;;;;;;;18.40;78.12;100138.59;5012691;28;20480;-51
2022/05/16 06:35:01;;;;;;;0.40;0.27;;;;;;;18.79;76.81;100142.44;5012353;28;20532;-51
2022/05/16 06:37:28;;;;;;;0.40;0.20;;;;;;;18.86;76.17;100138.34;5011380;28;20463;-52
2022/05/16 06:39:54;;;;;;;0.40;0.20;;;;;;;19.17;74.82;100137.19;5012308;28;20476;-52
2022/05/16 06:42:21;;;;;;;0.40;0.20;;;;;;;19.26;74.58;100136.59;5012311;28;20872;-52
2022/05/16 06:44:48;;;;;;;0.50;0.40;;;;;;;19.09;74.16;100140.41;5012498;28;20472;-51
2022/05/16 06:47:14;;;;;;;0.47;0.30;;;;;;;19.20;72.84;100140.56;5012216;28;20522;-53
2022/05/16 06:49:41;;;;;;;0.40;0.30;;;;;;;19.17;73.17;100142.56;4982150;28;20957;-52
2022/05/16 06:52:08;;;;;;;0.90;0.87;;;;;;;19.37;72.91;100147.50;5012249;28;20994;-51
2022/05/16 06:54:37;;;;;;;0.40;0.20;;;;;;;19.61;72.97;100150.44;5011430;28;20480;-52
2022/05/16 06:57:04;;;;;;;0.60;0.60;;;;;;;19.45;72.88;100160.47;5012346;28;20479;-52
2022/05/16 06:59:30;;;;;;;0.87;0.87;;;;;;;19.33;72.42;100150.53;5012467;28;20488;-51
2022/05/16 07:01:57;;;;;;;0.40;0.30;;;;;;;19.30;72.11;100156.09;5012217;28;20448;-52
2022/05/16 07:04:24;;;;;;;0.60;0.50;;;;;;;19.33;73.37;100164.88;5012233;28;20469;-52
2022/05/16 07:06:50;;;;;;;0.40;0.20;;;;;;;19.48;72.52;100154.88;5012467;28;20961;-52
2022/05/16 07:09:18;;;;;;;0.40;0.20;;;;;;;19.55;72.32;100158.91;5012053;28;20448;-53
2022/05/16 07:11:45;;;;;;;0.40;0.20;;;;;;;19.59;72.29;100160.41;5012338;28;20484;-52
2022/05/16 07:14:12;;;;;;;0.97;0.97;;;;;;;19.65;72.13;100161.84;5012207;28;20477;-52
2022/05/16 07:16:38;;;;;;;3.27;1.60;;;;;;;19.82;72.28;100165.13;5008009;28;20555;-52
2022/05/16 07:19:06;;;;;;;3.03;1.03;;;;;;;19.67;71.96;100163.47;5012136;28;20798;-52
2022/05/16 07:21:34;;;;;;;0.43;0.30;;;;;;;19.79;72.59;100168.03;4994796;28;20449;-52
2022/05/16 07:24:01;;;;;;;0.40;0.20;;;;;;;19.99;71.81;100166.66;5012213;28;21079;-52
2022/05/16 07:29:12;;;;;;;0.50;0.40;;;;;;;20.20;71.32;100166.13;5012073;28;20991;-52
2022/05/16 07:31:39;;;;;;;6.23;1.80;;;;;;;20.11;70.85;100167.63;5012210;28;20492;-52
2022/05/16 07:34:13;;;;;;;0.50;0.30;;;;;;;20.46;70.08;100172.41;5011884;28;20484;-52
2022/05/16 07:36:39;;;;;;;0.67;0.57;;;;;;;20.40;70.64;100177.22;5012157;28;20453;-52
2022/05/16 07:39:06;;;;;;;0.40;0.30;;;;;;;20.46;68.87;100172.41;5011735;28;20827;-52
2022/05/16 07:41:33;;;;;;;0.50;0.47;;;;;;;20.34;69.59;100176.81;5012519;28;20491;-52
2022/05/16 07:43:59;;;;;;;0.60;0.60;;;;;;;20.43;69.29;100181.59;5011152;28;20484;-52
2022/05/16 07:46:26;;;;;;;0.40;0.30;;;;;;;20.61;69.18;100179.41;5011688;28;20457;-52
2022/05/16 07:48:53;;;;;;;0.50;0.50;;;;;;;20.67;68.66;100174.41;5015033;28;20476;-52
2022/05/16 07:51:19;;;;;;;0.50;0.30;;;;;;;20.51;67.82;100173.81;5015530;28;20484;-52
2022/05/16 07:53:46;;;;;;;0.40;0.30;;;;;;;20.56;68.31;100174.34;5015380;28;20469;-53
2022/05/16 07:56:12;;;;;;;1.37;0.50;;;;;;;20.32;69.30;100176.06;5015507;28;20488;-52
2022/05/16 07:58:39;;;;;;;0.50;0.50;;;;;;;20.34;68.93;100176.81;5015043;28;20448;-52
2022/05/16 08:01:06;;;;;;;0.63;0.60;;;;;;;20.49;68.40;100167.66;5015032;28;20452;-53
2022/05/16 08:03:32;;;;;;;0.53;0.53;;;;;;;20.51;68.27;100170.25;5015032;28;21014;-53
2022/05/16 08:05:59;;;;;;;0.47;0.30;;;;;;;20.49;66.27;100180.28;5015092;28;20460;-53
2022/05/16 08:11:12;;;;;;;0.60;0.40;;;;;;;21.07;64.70;100186.88;5014948;28;20497;-53
2022/05/16 08:13:41;;;;;;;0.73;0.73;;;;;;;21.67;64.41;100183.28;5015055;28;20472;-53
2022/05/16 08:16:09;;;;;;;0.50;0.30;;;;;;;21.94;63.26;100183.00;5012240;28;20463;-53
2022/05/16 08:18:36;;;;;;;1.67;0.93;;;;;;;22.01;63.26;100186.94;5013556;28;20510;-52
2022/05/16 08:21:03;;;;;;;0.80;0.80;;;;;;;22.55;63.02;100189.03;5015623;28;20472;-52
2022/05/16 08:23:30;;;;;;;0.50;0.30;;;;;;;22.59;61.96;100185.09;5014520;28;20538;-53
2022/05/16 08:26:01;;;;;;;0.40;0.20;;;;;;;22.43;62.14;100186.31;5014968;28;20461;-53
2022/05/16 08:28:28;;;;;;;0.40;0.30;;;;;;;22.51;62.24;100188.44;5014761;28;20889;-53
2022/05/16 08:30:55;;;;;;;0.40;0.20;;;;;;;22.67;62.06;100193.47;5014661;28;20492;-53
2022/05/16 08:33:22;;;;;;;1.80;1.70;;;;;;;23.12;62.12;100185.31;5014512;28;20472;-52
2022/05/16 08:39:51;;;;;;;0.50;0.30;;;;;;;22.85;62.40;100186.59;5014549;28;21077;-53
2022/05/16 08:41:40;;;;;;;0.40;0.30;;;;;;;23.12;61.38;100188.91;5014360;28;21019;-53
2022/05/16 08:44:20;;;;;;;0.40;0.30;;;;;;;23.33;61.68;100191.69;5014376;28;20820;-53
2022/05/16 08:47:19;;;;;;;3.40;1.60;;;;;;;23.59;60.45;100194.97;5014310;28;20452;-53
2022/05/16 08:49:57;;;;;;;0.50;0.37;;;;;;;23.47;60.91;100194.13;5002848;28;20503;-53
2022/05/16 08:52:53;;;;;;;2.53;2.20;;;;;;;23.64;61.01;100185.44;5014314;28;20500;-53
2022/05/16 08:55:19;;;;;;;0.40;0.30;;;;;;;24.47;59.47;100195.47;4977974;28;20493;-59
2022/05/16 08:57:54;;;;;;;0.40;0.20;;;;;;;23.82;61.02;100188.44;5014707;28;20535;-53
2022/05/16 09:00:41;;;;;;;0.50;0.33;;;;;;;24.18;60.39;100187.13;5013690;28;20494;-53
2022/05/16 09:03:14;;;;;;;1.90;1.80;;;;;;;24.93;58.92;100191.38;5013658;28;20452;-53
2022/05/16 09:05:48;;;;;;;0.50;0.30;;;;;;;25.19;58.91;100190.91;5001486;28;20456;-53
2022/05/16 09:08:38;;;;;;;0.60;0.60;;;;;;;25.34;58.64;100176.75;5014226;28;20447;-53
2022/05/16 09:11:32;;;;;;;0.50;0.50;;;;;;;25.81;57.38;100176.09;4996585;28;20488;-53
2022/05/16 09:14:33;;;;;;;0.50;0.40;;;;;;;25.34;58.03;100181.34;4981458;28;20527;-56
2022/05/16 09:17:03;;;;;;;2.10;1.27;;;;;;;25.93;57.92;100178.53;4994616;28;20483;-55
2022/05/16 09:19:39;;;;;;;0.43;0.30;;;;;;;26.38;56.15;100177.03;5013750;28;20464;-55
2022/05/16 09:22:38;;;;;;;0.93;0.93;;;;;;;26.52;56.97;100180.16;5001236;28;20441;-55
2022/05/16 09:25:15;;;;;;;0.60;0.60;;;;;;;26.61;56.33;100172.09;5013640;28;20554;-55
2022/05/16 09:30:30;;;;;;;0.40;0.20;;;;;;;26.34;56.32;100187.34;5013583;28;20448;-56
2022/05/16 09:33:11;;;;;;;0.77;0.77;;;;;;;26.65;56.30;100165.31;5013802;28;20453;-55
2022/05/16 09:36:08;;;;;;;0.40;0.20;;;;;;;27.07;55.81;100173.91;5014145;28;20889;-59
2022/05/16 09:38:35;;;;;;;0.50;0.30;;;;;;;26.92;55.31;100173.53;5002685;28;20448;-59
2022/05/16 09:41:01;;;;;;;0.80;0.70;;;;;;;27.22;55.85;100171.50;5013545;28;20445;-59
2022/05/16 09:43:41;;;;;;;0.50;0.50;;;;;;;26.99;55.62;100177.34;5013454;28;20465;-59
2022/05/16 09:46:19;;;;;;;0.40;0.20;;;;;;;27.35;55.05;100172.84;5013476;28;20423;-59
2022/05/16 09:48:54;;;;;;;1.27;0.87;;;;;;;27.89;54.90;100178.34;5013123;28;20452;-58
2022/05/16 09:51:21;;;;;;;0.50;0.30;;;;;;;28.03;54.60;100180.50;5000578;28;21095;-58
2022/05/16 09:53:48;;;;;;;0.53;0.50;;;;;;;27.89;54.62;100172.88;5001339;28;20474;-59
2022/05/16 09:56:35;;;;;;;0.50;0.50;;;;;;;28.03;54.23;100183.25;5013101;28;20882;-59
2022/05/16 09:59:02;;;;;;;0.40;0.30;;;;;;;28.08;54.28;100177.28;5014129;28;20507;-59
2022/05/16 10:01:33;;;;;;;0.40;0.30;;;;;;;27.91;55.07;100185.38;4995458;28;20879;-59
2022/05/16 10:04:19;;;;;;;5.40;2.00;;;;;;;28.06;56.24;100185.66;5013181;28;20469;-58
2022/05/16 10:06:58;;;;;;;0.50;0.30;;;;;;;27.99;55.51;100185.44;5012535;28;20448;-58
2022/05/16 10:09:30;;;;;;;0.70;0.70;;;;;;;27.99;55.90;100193.66;5013002;28;20525;-59
2022/05/16 10:11:57;;;;;;;0.50;0.50;;;;;;;27.34;57.40;100190.25;5011164;28;20484;-59
2022/05/16 10:14:24;;;;;;;7.13;3.20;;;;;;;27.47;57.63;100189.00;5012413;28;20469;-59
2022/05/16 10:16:53;;;;;;;0.40;0.30;;;;;;;27.72;57.28;100191.00;5008054;28;20452;-59
2022/05/16 10:19:26;;;;;;;0.50;0.40;;;;;;;27.76;57.45;100192.41;5012770;28;21004;-56
2022/05/16 10:22:03;;;;;;;0.50;0.30;;;;;;;27.18;57.52;100197.41;5012556;28;20502;-58
2022/05/16 10:24:34;;;;;;;1.13;0.50;;;;;;;27.43;56.89;100186.59;5012348;28;20892;-57
2022/05/16 10:27:06;;;;;;;0.50;0.40;;;;;;;27.46;57.17;100193.63;5012777;28;20475;-58
2022/05/16 10:29:37;;;;;;;1.77;1.60;;;;;;;27.72;56.26;100194.59;5012678;28;20445;-58
2022/05/16 10:35:02;;;;;;;0.50;0.40;;;;;;;27.95;56.48;100194.09;5012167;28;20534;-59
2022/05/16 10:37:32;;;;;;;0.50;0.30;;;;;;;28.41;55.05;100194.84;5005839;28;20492;-57
2022/05/16 10:40:10;;;;;;;6.40;2.27;;;;;;;28.80;53.74;100184.28;5006458;28;20496;-56
2022/05/16 10:42:49;;;;;;;0.40;0.30;;;;;;;28.33;54.35;100191.00;5007229;28;20448;-59
2022/05/16 10:45:19;;;;;;;0.50;0.40;;;;;;;28.70;53.70;100195.34;5000038;28;20465;-59
2022/05/16 10:47:55;;;;;;;0.80;0.80;;;;;;;28.88;52.37;100193.41;5009755;28;20872;-59
2022/05/16 10:50:30;;;;;;;1.23;1.13;;;;;;;28.96;52.07;100195.34;4999725;28;20826;-56
2022/05/16 10:53:10;;;;;;;0.50;0.50;;;;;;;28.66;52.72;100199.44;4999293;28;20487;-57
2022/05/16 10:55:50;;;;;;;0.63;0.60;;;;;;;28.71;53.38;100202.53;4994625;28;20459;-58
2022/05/16 10:58:43;;;;;;;0.50;0.40;;;;;;;28.79;52.12;100199.84;5011434;28;20469;-59
2022/05/16 11:01:22;;;;;;;0.50;0.40;;;;;;;28.73;51.21;100202.38;5012194;28;20534;-59
2022/05/16 11:04:03;;;;;;;1.20;0.60;;;;;;;28.95;50.83;100193.63;5012173;28;21048;-58
2022/05/16 11:06:53;;;;;;;0.50;0.30;;;;;;;28.87;50.57;100204.53;5012550;28;20870;-59
2022/05/16 11:09:49;;;;;;;0.57;0.33;;;;;;;28.95;50.07;100203.72;5001717;28;20990;-59
2022/05/16 11:12:29;;;;;;;0.83;0.83;;;;;;;29.12;49.77;100208.25;5012560;28;20467;-59
2022/05/16 11:15:06;;;;;;;0.50;0.30;;;;;;;29.12;49.88;100195.41;5011265;28;20518;-59
2022/05/16 11:17:51;;;;;;;0.83;0.83;;;;;;;28.81;50.75;100210.63;5003648;28;20420;-57
2022/05/16 11:20:38;;;;;;;0.50;0.47;;;;;;;29.24;50.26;100195.97;5001392;28;21005;-57
2022/05/16 11:23:19;;;;;;;0.80;0.80;;;;;;;29.08;50.92;100198.66;5013820;28;20440;-58
2022/05/16 11:26:19;;;;;;;0.50;0.30;;;;;;;29.41;49.66;100205.06;5013034;28;20434;-59
2022/05/16 11:32:21;;;;;;;3.97;1.90;;;;;;;28.68;49.24;100210.22;4985940;28;20490;-59
2022/05/16 11:34:50;;;;;;;0.50;0.30;;;;;;;28.19;49.83;100207.97;4999967;28;20512;-59
2022/05/16 11:37:21;;;;;;;1.70;1.60;;;;;;;28.00;51.10;100202.69;5015806;28;20452;-56
2022/05/16 11:39:59;;;;;;;0.80;0.80;;;;;;;28.52;50.83;100203.63;5015760;28;20503;-57
2022/05/16 11:42:41;;;;;;;0.53;0.40;;;;;;;28.49;49.88;100197.59;5015638;28;20522;-59
2022/05/16 11:45:28;;;;;;;2.50;2.30;;;;;;;28.06;50.75;100204.78;5010273;28;20848;-59
2022/05/16 11:48:36;;;;;;;0.43;0.30;;;;;;;28.04;50.15;100195.88;4973444;28;20503;-58
2022/05/16 11:51:36;;;;;;;0.40;0.30;;;;;;;28.29;48.94;100206.03;5001703;28;20567;-58
2022/05/16 11:54:05;;;;;;;0.53;0.30;;;;;;;28.40;48.65;100204.91;5008599;28;20476;-58
2022/05/16 12:02:34;;;;;;;0.40;0.30;;;;;;;28.58;48.37;100208.44;5015275;28;20449;-59
2022/05/16 12:05:00;;;;;;;0.90;0.87;;;;;;;28.94;48.22;100205.59;5012549;28;20514;-58
2022/05/16 12:07:48;;;;;;;3.73;1.73;;;;;;;28.69;48.13;100206.47;5003235;28;20460;-59
2022/05/16 12:10:14;;;;;;;1.33;1.33;;;;;;;28.69;48.33;100210.06;5012371;28;20457;-59
2022/05/16 12:12:46;;;;;;;0.50;0.30;;;;;;;28.37;49.71;100197.00;5014528;28;20488;-58
2022/05/16 12:15:15;;;;;;;0.60;0.60;;;;;;;28.65;49.24;100214.16;5009210;28;20449;-59
2022/05/16 12:18:05;;;;;;;0.50;0.50;;;;;;;28.01;49.20;100205.28;5008280;28;20455;-59
2022/05/16 12:20:42;;;;;;;0.93;0.80;;;;;;;28.40;48.57;100204.91;5002944;28;20445;-59
2022/05/16 12:23:14;;;;;;;0.40;0.30;;;;;;;28.46;48.99;100228.03;5014924;28;20515;-58